Latest Weather Observations for Maria Island

IDT60801

Issued at 1:41 am EDT Wednesday 20 February 2019 (issued every 10 minutes, with the page automatically refreshed every 10 minutes)

About weather observations | Map of weather stations | Latest weather observations for TAS | Other Formats
Station Details ID: 092124 Name: MARIA ISLAND (POINT LESUEUR) Lat: -42.66 Lon: 148.02 Height: 28.0 m
Data from the previous 72 hours. | See also: Recent months at Maria Island
Date/Time
EDT
Temp
°C
App
Temp
°C
Dew
Point
°C
Rel
Hum
%
Delta-T
°C
Wind Press
QNH
hPa
Press
MSL
hPa
Rain since
9am
mm
Dir  Spd
km/h
Gust
km/h
Spd
kts
Gust
kts
20/01:30am 14.4 11.2 7.0 61 3.6 NNW 13 15 7 8 1008.7 1008.6 0.0
20/01:00am 14.3 11.6 7.4 63 3.4 WNW 11 13 6 7 1009.3 1009.2 0.0
20/12:30am 14.7 10.2 6.8 59 3.8 WNW 20 24 11 13 1009.6 1009.5 0.0
20/12:00am 15.1 10.2 6.9 58 4.0 NW 22 28 12 15 1009.5 1009.4 0.0
 
Date/Time
EDT
Temp
°C
App
Temp
°C
Dew
Point
°C
Rel
Hum
%
Delta-T
°C
Wind Press
QNH
hPa
Press
MSL
hPa
Rain since
9am
mm
Dir  Spd
km/h
Gust
km/h
Spd
kts
Gust
kts
19/11:30pm 14.7 11.9 6.8 59 3.8 W 11 13 6 7 1009.7 1009.6 0.0
19/11:00pm 15.4 12.7 5.6 52 4.7 WNW 9 13 5 7 1009.7 1009.6 0.0
19/10:30pm 15.4 13.0 7.2 58 4.0 W 9 11 5 6 1009.8 1009.7 0.0
19/10:00pm 16.1 12.4 6.5 53 4.7 WNW 15 20 8 11 1009.9 1009.8 0.0
19/09:30pm 16.5 13.2 6.3 51 5.0 NNW 13 17 7 9 1009.5 1009.4 0.0
19/09:00pm 16.7 13.9 8.4 58 4.2 N 13 19 7 10 1009.1 1009.0 0.0
19/08:30pm 17.1 12.3 5.7 47 5.5 NW 20 26 11 14 1008.5 1008.4 0.0
19/08:00pm 17.4 12.2 5.7 46 5.7 WNW 22 26 12 14 1008.1 1008.0 0.0
19/07:30pm 18.4 14.3 6.3 45 6.0 WNW 17 20 9 11 1007.5 1007.4 0.0
19/07:00pm 18.8 13.9 4.9 40 6.7 W 20 26 11 14 1007.2 1007.1 0.0
19/06:30pm 19.4 14.3 6.2 42 6.6 W 22 28 12 15 1007.0 1006.9 0.0
19/06:00pm 19.9 15.2 5.2 38 7.2 WSW 19 26 10 14 1006.7 1006.6 0.0
19/05:30pm 19.3 14.7 5.4 40 6.8 WSW 19 32 10 17 1006.5 1006.4 0.0
19/05:00pm 19.0 13.9 5.8 42 6.5 SW 22 35 12 19 1006.2 1006.1 0.0
19/04:30pm 20.2 14.1 4.7 36 7.5 WSW 26 33 14 18 1006.2 1006.1 0.0
19/04:00pm 19.8 13.1 3.9 35 7.6 WSW 28 39 15 21 1006.0 1005.9 0.0
19/03:39pm 19.4 13.1 5.8 41 6.7 WSW 28 46 15 25 1005.6 1005.5 0.0
19/03:30pm 19.7 13.6 5.0 38 7.2 WSW 26 39 14 21 1006.0 1005.9 0.0
19/03:00pm 20.0 13.5 4.5 36 7.5 WSW 28 35 15 19 1006.0 1005.9 0.0
19/02:30pm 20.1 13.7 5.4 38 7.2 WSW 28 39 15 21 1005.9 1005.8 0.0
19/02:00pm 19.6 11.8 4.9 38 7.2 WSW 35 54 19 29 1005.3 1005.2 0.0
19/01:56pm 19.6 12.8 5.3 39 7.0 WSW 30 54 16 29 1005.3 1005.2 0.0
19/01:30pm 18.8 12.6 4.2 38 7.0 WSW 26 43 14 23 1005.6 1005.5 0.0
19/01:26pm 19.0 12.3 5.5 41 6.6 SW 30 48 16 26 1005.5 1005.4 0.0
19/01:00pm 18.7 12.1 4.1 38 7.0 WSW 28 41 15 22 1005.4 1005.3 0.0
19/12:30pm 18.5 11.1 3.9 38 6.9 WSW 32 52 17 28 1005.0 1004.9 0.0
19/12:28pm 18.9 12.5 5.0 40 6.7 WSW 28 52 15 28 1005.1 1005.0 0.0
19/12:00pm 18.1 9.6 3.2 37 6.9 W 37 46 20 25 1005.2 1005.1 0.0
19/11:30am 18.1 11.0 3.6 38 6.8 W 30 43 16 23 1005.2 1005.1 0.0
19/11:00am 17.6 11.1 4.6 42 6.2 W 28 35 15 19 1005.2 1005.1 0.0
19/10:30am 16.6 9.0 3.7 42 6.0 W 33 50 18 27 1004.9 1004.8 0.0
19/10:00am 16.1 11.3 4.5 46 5.5 W 19 37 10 20 1004.9 1004.8 0.0
19/09:30am 15.3 11.3 4.7 49 5.0 W 15 20 8 11 1004.6 1004.5 0.0
19/09:00am 14.0 9.9 4.3 52 4.5 W 15 24 8 13 1004.7 1004.6 0.0
19/08:30am 13.3 8.3 3.7 52 4.3 WNW 19 24 10 13 1004.3 1004.2 0.0
19/08:00am 13.6 8.6 3.4 50 4.6 WNW 19 24 10 13 1004.1 1004.0 0.0
19/07:30am 12.9 8.6 3.3 52 4.3 WNW 15 22 8 12 1004.0 1003.9 0.0
19/07:00am 12.4 8.5 3.6 55 3.9 WNW 13 20 7 11 1004.0 1003.9 0.0
19/06:30am 12.2 8.0 3.7 56 3.8 NW 15 22 8 12 1003.8 1003.7 0.0
19/06:00am 12.4 7.5 3.9 56 3.8 NW 19 26 10 14 1003.6 1003.5 0.0
19/05:30am 12.7 8.8 3.6 54 4.1 NW 13 20 7 11 1003.2 1003.1 0.0
19/05:00am 12.1 8.2 3.6 56 3.8 WNW 13 22 7 12 1003.4 1003.3 0.0
19/04:30am 12.1 7.9 3.6 56 3.8 WNW 15 22 8 12 1003.5 1003.4 0.0
19/04:00am 12.3 7.2 3.3 54 4.0 WNW 19 26 10 14 1003.5 1003.4 0.0
19/03:30am 12.5 7.9 3.5 54 4.0 NW 17 24 9 13 1003.7 1003.6 0.0
19/03:00am 12.6 7.6 3.8 55 4.0 NW 19 26 10 14 1003.2 1003.1 0.0
19/02:30am 12.6 8.3 3.3 53 4.1 NW 15 20 8 11 1003.4 1003.3 0.0
19/02:00am 12.8 8.7 4.3 56 3.9 WNW 15 22 8 12 1003.3 1003.2 0.0
19/01:30am 13.0 8.0 3.7 53 4.2 WNW 19 32 10 17 1003.4 1003.3 0.0
19/01:00am 12.9 8.0 4.1 55 4.0 W 19 26 10 14 1003.4 1003.3 0.0
19/12:30am 13.3 9.9 4.2 54 4.1 W 11 24 6 13 1003.5 1003.4 0.0
19/12:00am 13.3 9.9 5.9 61 3.5 SW 13 20 7 11 1003.3 1003.2 0.0
 
Date/Time
EDT
Temp
°C
App
Temp
°C
Dew
Point
°C
Rel
Hum
%
Delta-T
°C
Wind Press
QNH
hPa
Press
MSL
hPa
Rain since
9am
mm
Dir  Spd
km/h
Gust
km/h
Spd
kts
Gust
kts
18/11:30pm 13.9 10.2 6.3 60 3.6 W 15 19 8 10 1003.2 1003.1 0.0
18/11:00pm 14.1 10.3 6.0 58 3.9 WNW 15 22 8 12 1003.2 1003.1 0.0
18/10:30pm 14.5 10.4 6.1 57 4.0 W 17 37 9 20 1003.1 1003.0 0.0
18/10:00pm 15.6 10.6 6.3 54 4.5 WNW 22 32 12 17 1002.9 1002.8 0.0
18/09:30pm 15.8 10.3 5.7 51 4.8 WNW 24 32 13 17 1002.2 1002.1 0.0
18/09:00pm 16.5 10.8 6.9 53 4.8 W 26 33 14 18 1001.7 1001.6 0.0
18/08:30pm 17.0 9.5 6.5 50 5.2 W 35 46 19 25 1000.8 1000.7 0.0
18/08:14pm 17.4 11.0 6.9 50 5.2 WNW 30 48 16 26 1000.6 1000.5 0.0
18/08:00pm 17.7 9.7 5.9 46 5.8 WNW 37 46 20 25 1000.1 1000.0 0.0
18/07:47pm 18.0 11.1 7.4 50 5.3 WNW 33 52 18 28 1000.0 999.9 0.0
18/07:30pm 18.7 11.6 6.5 45 6.1 W 33 44 18 24 999.3 999.2 0.0
18/07:00pm 19.2 10.3 6.7 44 6.3 W 43 57 23 31 998.3 998.3 0.0
18/06:38pm 20.1 11.3 7.1 43 6.6 W 43 61 23 33 998.1 998.1 0.0
18/06:30pm 20.3 10.9 5.5 38 7.3 W 44 57 24 31 997.8 997.8 0.0
18/06:00pm 20.9 9.8 6.4 39 7.4 W 54 70 29 38 996.8 996.8 0.0
18/05:39pm 21.3 11.3 6.0 37 7.7 W 48 67 26 36 996.9 996.9 0.0
18/05:30pm 21.5 11.3 5.4 35 8.0 W 48 67 26 36 996.7 996.7 0.0
18/05:25pm 21.9 12.6 5.8 35 8.1 W 44 67 24 36 996.4 996.4 0.0
18/05:00pm 22.4 13.3 6.6 36 8.1 W 44 56 24 30 996.5 996.5 0.0
18/04:30pm 23.5 17.0 8.0 37 8.2 W 32 44 17 24 996.2 996.2 0.0
18/04:12pm 24.1 19.4 7.7 35 8.6 W 22 50 12 27 996.2 996.2 0.0
18/04:00pm 22.1 21.0 9.9 46 6.7 ENE 6 15 3 8 996.6 996.6 0.0
18/03:30pm 20.0 16.5 13.5 66 3.7 ENE 24 28 13 15 996.6 996.6 0.0
18/03:00pm 21.1 17.4 14.0 64 4.1 E 26 32 14 17 996.8 996.8 0.0
18/02:30pm 22.6 20.4 13.4 56 5.3 SE 17 24 9 13 996.9 996.9 0.0
18/02:00pm 21.0 18.0 14.9 68 3.6 ESE 24 28 13 15 996.6 996.6 0.0
18/01:30pm 22.4 20.3 13.5 57 5.2 SE 17 24 9 13 996.8 996.8 0.0
18/01:00pm 21.9 17.0 12.7 56 5.3 S 30 35 16 19 997.1 997.1 0.0
18/12:30pm 22.3 20.2 14.7 62 4.5 S 19 26 10 14 997.2 997.2 0.0
18/12:00pm 20.9 20.0 13.8 64 4.1 SSW 11 20 6 11 997.7 997.7 0.0
18/11:38am 21.7 17.7 14.1 62 4.4 NNW 28 41 15 22 998.1 998.1 0.0
18/11:30am 21.4 15.4 14.3 64 4.1 N 39 44 21 24 997.4 997.4 0.0
18/11:00am 21.9 15.7 14.8 64 4.2 N 41 46 22 25 997.4 997.4 0.0
18/10:30am 21.5 14.9 14.9 66 3.9 N 43 50 23 27 997.6 997.6 0.0
18/10:00am 20.6 13.8 14.7 69 3.5 N 44 52 24 28 997.9 997.9 0.0
18/09:30am 20.7 13.8 14.6 68 3.6 N 44 52 24 28 998.4 998.4 0.0
18/09:00am 19.6 12.8 14.2 71 3.1 N 43 50 23 27 999.0 999.0 0.0
18/08:30am 19.4 12.3 14.0 71 3.1 N 44 52 24 28 999.3 999.2 0.0
18/08:00am 19.2 13.5 14.2 73 2.9 N 37 41 20 22 1000.0 999.9 0.0
18/07:30am 18.9 14.3 14.6 76 2.5 N 32 41 17 22 1000.2 1000.1 0.0
18/07:00am 18.7 13.5 14.4 76 2.5 N 35 43 19 23 1000.3 1000.2 0.0
18/06:30am 18.7 13.5 14.4 76 2.5 N 35 43 19 23 1000.3 1000.2 0.0
18/06:00am 18.7 13.0 14.2 75 2.6 N 37 44 20 24 1000.2 1000.1 0.0
18/05:30am 18.7 13.4 14.2 75 2.6 N 35 44 19 24 1000.1 1000.0 0.0
18/05:00am 18.5 13.1 13.8 74 2.7 N 35 41 19 22 1000.9 1000.8 0.0
18/04:30am 18.5 12.8 14.2 76 2.5 N 37 44 20 24 1001.5 1001.4 0.0
18/04:00am 18.2 14.6 14.3 78 2.3 N 26 30 14 16 1001.5 1001.4 0.0
18/03:30am 18.2 14.2 14.1 77 2.4 N 28 33 15 18 1001.7 1001.6 0.0
18/03:00am 18.3 15.5 14.4 78 2.3 N 22 28 12 15 1002.0 1001.9 0.0
18/02:30am 18.2 14.3 14.3 78 2.2 N 28 32 15 17 1002.4 1002.3 0.0
18/02:00am 18.2 15.4 14.3 78 2.3 N 22 24 12 13 1003.0 1002.9 0.0
18/01:30am 18.3 14.3 14.2 77 2.4 N 28 32 15 17 1003.5 1003.4 0.0
18/01:00am 18.1 14.5 14.2 78 2.2 N 26 32 14 17 1003.9 1003.8 0.0
18/12:30am 18.1 13.2 14.2 78 2.2 NNW 33 39 18 21 1003.9 1003.8 0.0
18/12:00am 18.3 12.9 14.0 76 2.5 NNW 35 41 19 22 1004.0 1003.9 0.0
 
Date/Time
EDT
Temp
°C
App
Temp
°C
Dew
Point
°C
Rel
Hum
%
Delta-T
°C
Wind Press
QNH
hPa
Press
MSL
hPa
Rain since
9am
mm
Dir  Spd
km/h
Gust
km/h
Spd
kts
Gust
kts
17/11:30pm 18.9 14.5 14.0 73 2.8 NNW 30 35 16 19 1004.1 1004.0 0.0
17/11:00pm 19.1 14.8 14.4 74 2.7 NNW 30 33 16 18 1004.5 1004.4 0.0
17/10:30pm 19.8 15.0 14.0 69 3.3 NNW 32 35 17 19 1004.6 1004.5 0.0
17/10:18pm 19.4 18.5 14.9 75 2.6 NW 13 30 7 16 1004.6 1004.5 0.0
17/10:00pm 18.5 19.3 14.8 79 2.2 NW 4 7 2 4 1004.8 1004.7 0.0
17/09:30pm 18.7 19.7 14.4 76 2.5 NNW 2 4 1 2 1004.8 1004.7 0.0
17/09:00pm 19.3 18.6 14.3 73 2.9 N 11 13 6 7 1004.4 1004.3 0.0
17/08:30pm 19.5 19.2 14.3 72 3.0 NW 9 13 5 7 1004.3 1004.2 0.0
17/08:00pm 19.6 18.5 14.4 72 3.0 WNW 13 13 7 7 1004.3 1004.2 0.0
17/07:30pm 19.5 18.2 14.7 74 2.8 WNW 15 19 8 10 1004.0 1003.9 0.0
17/07:00pm 20.2 18.5 14.8 71 3.2 NW 17 20 9 11 1003.9 1003.8 0.0
17/06:30pm 20.9 20.1 15.0 69 3.5 NW 13 17 7 9 1003.8 1003.7 0.0
17/06:00pm 22.1 20.2 14.2 61 4.6 NNW 17 20 9 11 1004.4 1004.3 0.0
17/05:30pm 22.1 19.9 14.5 62 4.5 N 19 24 10 13 1004.5 1004.4 0.0
17/05:00pm 21.3 18.1 15.2 68 3.6 N 26 32 14 17 1004.6 1004.5 0.0
17/04:30pm 20.3 18.4 15.1 72 3.1 N 19 22 10 12 1005.3 1005.2 0.0
17/04:00pm 20.5 18.8 14.8 70 3.4 N 17 22 9 12 1005.8 1005.7 0.0
17/03:30pm 20.4 17.5 15.2 72 3.1 N 24 28 13 15 1006.1 1006.0 0.0
17/03:00pm 19.7 17.0 14.5 72 3.0 N 22 28 12 15 1006.7 1006.6 0.0
17/02:30pm 20.9 18.4 14.1 65 4.0 N 20 30 11 16 1007.0 1006.9 0.0
17/02:00pm 20.5 17.6 13.9 66 3.8 N 22 30 12 16 1007.1 1007.0 0.0
17/01:30pm 20.1 15.8 13.1 64 4.0 N 28 33 15 18 1007.3 1007.2 0.0
17/01:00pm 20.2 17.1 13.4 65 3.9 N 22 28 12 15 1007.8 1007.7 0.0
17/12:30pm 20.7 17.8 13.9 65 3.9 N 22 28 12 15 1008.2 1008.1 0.0
17/12:00pm 20.1 17.7 13.8 67 3.6 N 19 22 10 12 1008.9 1008.8 0.0
17/11:30am 19.1 16.6 13.5 70 3.2 N 19 20 10 11 1009.1 1009.0 0.0
17/11:00am 19.3 17.0 14.1 72 3.0 N 19 20 10 11 1009.6 1009.5 0.0
17/10:30am 18.3 17.1 14.0 76 2.5 N 13 17 7 9 1009.9 1009.8 0.0
17/10:00am 17.0 17.0 14.1 83 1.7 NNE 7 13 4 7 1010.5 1010.4 0.0
17/09:30am 16.5 16.4 14.0 85 1.4 NE 7 9 4 5 1010.6 1010.5 0.0
17/09:00am 16.1 16.9 13.8 86 1.3 NE 2 4 1 2 1010.7 1010.6 0.0
17/08:30am 15.9 15.9 13.7 87 1.2 NE 6 11 3 6 1010.8 1010.7 0.0
17/08:00am 15.7 16.6 13.9 89 1.0 SSE 2 6 1 3 1011.0 1010.9 0.0
17/07:30am 15.6 15.5 13.8 89 1.0 S 7 9 4 5 1010.9 1010.8 0.0
17/07:00am 15.5 15.5 13.7 89 1.0 SSW 6 7 3 4 1010.9 1010.8 0.0
17/06:30am 15.4 16.2 13.8 90 0.9 SSE 2 6 1 3 1011.0 1010.9 0.0
17/06:00am 15.4 14.9 13.8 90 0.9 S 9 13 5 7 1010.7 1010.6 0.0
17/05:30am 15.2 15.6 13.6 90 0.9 SE 4 7 2 4 1010.7 1010.6 0.0
17/05:00am 15.1 15.5 13.6 91 0.8 SE 4 6 2 3 1010.6 1010.5 0.0
17/04:30am 15.3 14.9 14.0 92 0.7 SSE 9 13 5 7 1010.8 1010.7 0.0
17/04:00am 14.7 14.7 13.6 93 0.6 SSE 6 7 3 4 1011.2 1011.1 0.0
17/03:30am 14.6 14.3 13.3 92 0.7 SE 7 9 4 5 1011.5 1011.4 0.0
17/03:00am 14.7 13.7 13.4 92 0.7 SSE 11 13 6 7 1011.8 1011.7 0.0
17/02:30am 14.9 14.3 13.4 91 0.8 SSE 9 13 5 7 1011.9 1011.8 0.0
17/02:00am 15.2 13.5 13.6 90 0.9 S 15 19 8 10 1012.0 1011.9 0.0

Other formats

Comma delimited format used in spreadsheet applications
http://www.bom.gov.au/fwo/IDT60801/IDT60801.95988.axf

JavaScript Object Notation format (JSON) in row-major order
http://www.bom.gov.au/fwo/IDT60801/IDT60801.95988.json

Data quality

Most of these data are generated automatically and are frequently updated. Quality checks on data are not normally performed. It is possible for incorrect values to appear. Refer to information at About Latest Weather Observations and please check the disclaimer before using these data.